createdAt,value
2022-08-21T00:00:20.421Z,100.00
2022-08-21T00:03:02.238Z,100.00
2022-08-21T00:05:38.652Z,100.00
2022-08-21T00:08:06.156Z,100.00
2022-08-21T00:10:33.717Z,100.00
2022-08-21T00:13:04.766Z,100.00
2022-08-21T00:15:34.628Z,100.00
2022-08-21T00:18:01.805Z,100.00
2022-08-21T00:20:29.202Z,100.00
2022-08-21T00:22:56.129Z,100.00
2022-08-21T00:25:26.311Z,100.00
2022-08-21T00:27:54.955Z,100.00
2022-08-21T00:30:24.569Z,100.00
2022-08-21T00:32:53.654Z,100.00
2022-08-21T00:35:26.286Z,100.00
2022-08-21T00:37:53.119Z,100.00
2022-08-21T00:40:29.323Z,100.00
2022-08-21T00:42:56.471Z,100.00
2022-08-21T00:45:24.682Z,100.00
2022-08-21T00:47:53.383Z,100.00
2022-08-21T00:50:21.578Z,100.00
2022-08-21T00:52:51.911Z,100.00
2022-08-21T00:55:21.820Z,100.00
2022-08-21T00:57:53.420Z,100.00
2022-08-21T01:00:32.581Z,100.00
2022-08-21T01:03:02.386Z,100.00
2022-08-21T01:05:34.594Z,100.00
2022-08-21T01:08:01.674Z,100.00
2022-08-21T01:10:29.034Z,100.00
2022-08-21T01:12:58.263Z,100.00
2022-08-21T01:15:32.297Z,100.00
2022-08-21T01:18:00.463Z,100.00
2022-08-21T01:20:32.474Z,100.00
2022-08-21T01:23:01.467Z,100.00
2022-08-21T01:25:28.331Z,100.00
2022-08-21T01:27:55.747Z,100.00
2022-08-21T01:30:28.004Z,100.00
2022-08-21T01:32:56.348Z,100.00
2022-08-21T01:35:23.856Z,100.00
2022-08-21T01:37:50.709Z,100.00
2022-08-21T01:40:20.146Z,100.00
2022-08-21T01:42:47.202Z,100.00
2022-08-21T01:45:16.577Z,100.00
2022-08-21T01:47:45.418Z,100.00
2022-08-21T01:50:19.132Z,100.00
2022-08-21T01:52:46.048Z,100.00
2022-08-21T01:55:18.867Z,100.00
2022-08-21T01:57:47.123Z,100.00
2022-08-21T02:00:17.879Z,100.00
2022-08-21T02:02:44.721Z,100.00
2022-08-21T02:05:13.443Z,100.00
2022-08-21T02:07:45.549Z,100.00
2022-08-21T02:10:18.819Z,100.00
2022-08-21T02:12:46.579Z,100.00
2022-08-21T02:15:13.485Z,100.00
2022-08-21T02:17:48.054Z,100.00
2022-08-21T02:20:38.475Z,100.00
2022-08-21T02:23:07.853Z,100.00
2022-08-21T02:25:35.407Z,100.00
2022-08-21T02:28:07.769Z,100.00
2022-08-21T02:30:40.609Z,100.00
2022-08-21T02:33:08.932Z,100.00
2022-08-21T02:35:36.021Z,100.00
2022-08-21T02:38:12.937Z,100.00
2022-08-21T02:40:43.784Z,100.00
2022-08-21T02:43:16.310Z,100.00
2022-08-21T02:45:44.983Z,100.00
2022-08-21T02:48:17.820Z,100.00
2022-08-21T02:50:49.950Z,100.00
2022-08-21T02:53:18.116Z,100.00
2022-08-21T02:55:48.004Z,100.00
2022-08-21T02:58:19.079Z,100.00
2022-08-21T03:00:46.318Z,100.00
2022-08-21T03:03:15.413Z,100.00
2022-08-21T03:05:44.271Z,100.00
2022-08-21T03:08:13.905Z,100.00
2022-08-21T03:10:45.558Z,100.00
2022-08-21T03:13:13.699Z,100.00
2022-08-21T03:15:41.138Z,100.00
2022-08-21T03:18:10.573Z,100.00
2022-08-21T03:20:39.999Z,100.00
2022-08-21T03:23:07.718Z,100.00
2022-08-21T03:25:41.283Z,100.00
2022-08-21T03:28:14.007Z,100.00
2022-08-21T03:30:48.120Z,100.00
2022-08-21T03:33:15.771Z,100.00
2022-08-21T03:35:45.731Z,100.00
2022-08-21T03:38:16.254Z,100.00
2022-08-21T03:40:44.610Z,100.00
2022-08-21T03:43:11.868Z,100.00
2022-08-21T03:45:40.201Z,100.00
2022-08-21T03:48:10.079Z,100.00
2022-08-21T03:50:41.640Z,100.00
2022-08-21T03:53:17.527Z,100.00
2022-08-21T03:55:50.172Z,100.00
2022-08-21T03:58:18.976Z,100.00
2022-08-21T04:00:49.099Z,100.00
2022-08-21T04:03:16.713Z,100.00
2022-08-21T04:05:43.762Z,100.00
2022-08-21T04:08:10.605Z,100.00
2022-08-21T04:10:40.289Z,100.00
2022-08-21T04:13:08.551Z,100.00
2022-08-21T04:15:35.967Z,100.00
2022-08-21T04:18:03.521Z,100.00
2022-08-21T04:20:30.625Z,100.00
2022-08-21T04:22:57.736Z,100.00
2022-08-21T04:25:26.548Z,100.00
2022-08-21T04:27:54.166Z,100.00
2022-08-21T04:30:28.228Z,100.00
2022-08-21T04:32:58.162Z,100.00
2022-08-21T04:35:27.981Z,100.00
2022-08-21T04:37:54.827Z,100.00
2022-08-21T04:40:28.269Z,100.00
2022-08-21T04:43:01.608Z,100.00
2022-08-21T04:45:33.362Z,100.00
2022-08-21T04:48:02.602Z,100.00
2022-08-21T04:50:37.309Z,100.00
2022-08-21T04:53:08.733Z,100.00
2022-08-21T04:55:36.266Z,100.00
2022-08-21T04:58:03.284Z,100.00
2022-08-21T05:00:30.760Z,100.00
2022-08-21T05:03:00.431Z,100.00
2022-08-21T05:05:30.215Z,100.00
2022-08-21T05:08:00.757Z,100.00
2022-08-21T05:10:28.305Z,100.00
2022-08-21T05:12:56.018Z,100.00
2022-08-21T05:15:22.901Z,100.00
2022-08-21T05:17:53.557Z,100.00
2022-08-21T05:20:27.854Z,100.00
2022-08-21T05:22:54.715Z,100.00
2022-08-21T05:25:23.777Z,100.00
2022-08-21T05:27:52.154Z,100.00
2022-08-21T05:30:20.851Z,100.00
2022-08-21T05:32:48.840Z,100.00
2022-08-21T05:35:15.910Z,100.00
2022-08-21T05:37:42.785Z,100.00
2022-08-21T05:40:22.206Z,100.00
2022-08-21T05:42:55.655Z,100.00
2022-08-21T05:45:42.202Z,100.00
2022-08-21T05:48:13.667Z,100.00
2022-08-21T05:50:41.669Z,100.00
2022-08-21T05:53:10.368Z,100.00
2022-08-21T05:55:42.698Z,100.00
2022-08-21T05:58:12.917Z,100.00
2022-08-21T06:00:40.379Z,100.00
2022-08-21T06:03:13.728Z,100.00
2022-08-21T06:05:40.566Z,100.00
2022-08-21T06:08:07.383Z,100.00
2022-08-21T06:10:34.311Z,100.00
2022-08-21T06:13:01.532Z,100.00
2022-08-21T06:15:28.537Z,100.00
2022-08-21T06:17:55.845Z,100.00
2022-08-21T06:20:23.725Z,100.00
2022-08-21T06:22:50.655Z,100.00
2022-08-21T06:25:17.603Z,100.00
2022-08-21T06:27:44.623Z,100.00
2022-08-21T06:30:12.234Z,100.00
2022-08-21T06:32:39.380Z,100.00
2022-08-21T06:35:07.314Z,100.00
2022-08-21T06:37:34.568Z,100.00
2022-08-21T06:40:01.798Z,100.00
2022-08-21T06:42:29.185Z,100.00
2022-08-21T06:44:58.486Z,100.00
2022-08-21T06:47:25.360Z,100.00
2022-08-21T06:49:52.271Z,100.00
2022-08-21T06:52:19.111Z,100.00
2022-08-21T06:54:46.334Z,100.00
2022-08-21T06:57:13.163Z,100.00
2022-08-21T06:59:40.077Z,100.00
2022-08-21T07:02:07.042Z,100.00
2022-08-21T07:04:34.188Z,100.00
2022-08-21T07:07:01.047Z,100.00
2022-08-21T07:09:28.090Z,100.00
2022-08-21T07:11:56.437Z,100.00
2022-08-21T07:14:23.451Z,100.00
2022-08-21T07:16:51.686Z,100.00
2022-08-21T07:19:19.126Z,100.00
2022-08-21T07:21:46.161Z,100.00
2022-08-21T07:24:13.288Z,100.00
2022-08-21T07:26:41.097Z,100.00
2022-08-21T07:29:07.995Z,100.00
2022-08-21T07:31:34.849Z,100.00
2022-08-21T07:34:01.780Z,100.00
2022-08-21T07:36:28.735Z,100.00
2022-08-21T07:38:55.664Z,100.00
2022-08-21T07:41:27.249Z,100.00
2022-08-21T07:43:54.083Z,100.00
2022-08-21T07:46:21.756Z,100.00
2022-08-21T07:48:48.702Z,100.00
2022-08-21T07:51:17.601Z,100.00
2022-08-21T07:53:53.784Z,100.00
2022-08-21T07:56:21.088Z,100.00
2022-08-21T07:58:48.626Z,100.00
2022-08-21T08:01:15.889Z,100.00
2022-08-21T08:03:43.042Z,100.00
2022-08-21T08:06:13.173Z,100.00
2022-08-21T08:08:41.832Z,100.00
2022-08-21T08:11:16.063Z,100.00
2022-08-21T08:13:49.283Z,100.00
2022-08-21T08:16:16.787Z,100.00
2022-08-21T08:18:43.755Z,100.00
2022-08-21T08:21:12.087Z,100.00
2022-08-21T08:23:39.734Z,100.00
2022-08-21T08:26:06.832Z,100.00
2022-08-21T08:28:34.600Z,100.00
2022-08-21T08:31:01.907Z,100.00
2022-08-21T08:33:29.083Z,100.00
2022-08-21T08:35:56.474Z,100.00
2022-08-21T08:38:25.693Z,100.00
2022-08-21T08:41:00.948Z,100.00
2022-08-21T08:43:30.851Z,100.00
2022-08-21T08:46:02.329Z,100.00
2022-08-21T08:49:05.774Z,100.00
2022-08-21T08:51:58.754Z,100.00
2022-08-21T08:54:50.216Z,100.00
2022-08-21T08:57:23.799Z,100.00
2022-08-21T08:59:59.986Z,100.00
2022-08-21T09:02:28.677Z,100.00
2022-08-21T09:04:56.912Z,100.00
2022-08-21T09:07:47.399Z,100.00
2022-08-21T09:10:24.360Z,100.00
2022-08-21T09:13:13.058Z,100.00
2022-08-21T09:16:24.025Z,100.00
2022-08-21T09:19:49.032Z,100.00
2022-08-21T09:22:48.911Z,100.00
2022-08-21T09:25:27.142Z,100.00
2022-08-21T09:27:55.107Z,100.00
2022-08-21T09:30:32.048Z,100.00
2022-08-21T09:32:59.308Z,100.00
2022-08-21T09:35:27.175Z,98.40
2022-08-21T09:38:03.735Z,100.00
2022-08-21T09:40:40.852Z,100.00
2022-08-21T09:43:13.371Z,96.88
2022-08-21T09:45:43.008Z,100.00
2022-08-21T09:48:13.707Z,100.00
2022-08-21T09:50:42.919Z,100.00
2022-08-21T09:53:24.399Z,100.00
2022-08-21T09:56:18.191Z,100.00
2022-08-21T09:58:52.003Z,99.34
2022-08-21T10:01:25.686Z,97.89
2022-08-21T10:04:34.282Z,88.08
2022-08-21T10:07:14.935Z,93.12
2022-08-21T10:09:42.888Z,88.98
2022-08-21T10:12:24.186Z,79.92
2022-08-21T10:15:14.649Z,79.79
2022-08-21T10:18:02.610Z,73.23
2022-08-21T10:20:51.876Z,73.33
2022-08-21T10:23:58.425Z,77.47
2022-08-21T10:27:07.056Z,73.58
2022-08-21T10:29:51.664Z,71.38
2022-08-21T10:32:39.960Z,74.36
2022-08-21T10:35:31.361Z,76.27
2022-08-21T10:38:48.891Z,74.05
2022-08-21T10:41:41.589Z,64.54
2022-08-21T10:44:42.014Z,65.84
2022-08-21T10:47:42.912Z,66.82
2022-08-21T10:50:41.410Z,66.12
2022-08-21T10:53:37.836Z,64.92
2022-08-21T10:56:23.771Z,63.26
2022-08-21T10:59:35.432Z,63.39
2022-08-21T11:02:20.415Z,66.46
2022-08-21T11:05:15.016Z,68.11
2022-08-21T11:08:19.854Z,64.72
2022-08-21T11:11:08.681Z,64.19
2022-08-21T11:13:49.051Z,65.44
2022-08-21T11:16:32.456Z,64.69
2022-08-21T11:19:32.501Z,60.07
2022-08-21T11:22:28.046Z,58.81
2022-08-21T11:25:04.158Z,55.75
2022-08-21T11:27:44.845Z,59.08
2022-08-21T11:30:13.717Z,59.23
2022-08-21T11:33:31.051Z,56.87
2022-08-21T11:36:13.783Z,53.83
2022-08-21T11:38:44.422Z,49.97
2022-08-21T11:41:24.558Z,47.86
2022-08-21T11:44:16.081Z,45.02
2022-08-21T11:47:02.314Z,46.35
2022-08-21T11:50:03.051Z,40.57
2022-08-21T11:52:40.811Z,41.31
2022-08-21T11:55:25.285Z,45.52
2022-08-21T11:58:08.477Z,46.88
2022-08-21T12:00:59.551Z,45.35
2022-08-21T12:03:35.167Z,46.69
2022-08-21T12:06:24.207Z,45.52
2022-08-21T12:09:05.125Z,47.27
2022-08-21T12:11:32.037Z,49.82
2022-08-21T12:14:14.127Z,50.95
2022-08-21T12:16:48.709Z,52.67
2022-08-21T12:19:32.015Z,52.41
2022-08-21T12:21:58.694Z,50.63
2022-08-21T12:24:28.131Z,50.60
2022-08-21T12:26:56.790Z,49.02
2022-08-21T12:29:34.107Z,48.78
2022-08-21T12:32:00.810Z,51.61
2022-08-21T12:34:50.620Z,52.71
2022-08-21T12:37:42.163Z,53.09
2022-08-21T12:40:24.190Z,48.92
2022-08-21T12:42:58.964Z,50.66
2022-08-21T12:45:37.755Z,49.14
2022-08-21T12:48:24.986Z,48.21
2022-08-21T12:50:57.629Z,50.57
2022-08-21T12:53:34.603Z,49.17
2022-08-21T12:56:10.965Z,49.15
2022-08-21T12:58:52.531Z,49.13
2022-08-21T13:01:31.659Z,48.65
2022-08-21T13:04:21.870Z,48.54
2022-08-21T13:06:53.303Z,46.59
2022-08-21T13:09:27.452Z,46.51
2022-08-21T13:11:55.312Z,38.13
2022-08-21T13:14:38.354Z,33.96
2022-08-21T13:17:13.768Z,37.84
2022-08-21T13:20:07.122Z,37.49
2022-08-21T13:22:41.815Z,34.72
2022-08-21T13:25:13.389Z,31.03
2022-08-21T13:27:40.973Z,32.76
2022-08-21T13:30:19.510Z,35.39
2022-08-21T13:32:51.774Z,36.28
2022-08-21T13:35:24.667Z,33.44
2022-08-21T13:37:53.026Z,32.12
2022-08-21T13:40:48.148Z,28.02
2022-08-21T13:43:21.498Z,30.47
2022-08-21T13:45:53.537Z,32.85
2022-08-21T13:48:23.338Z,34.30
2022-08-21T13:50:50.609Z,34.61
2022-08-21T13:53:30.321Z,36.06
2022-08-21T13:56:00.745Z,36.60
2022-08-21T13:58:44.558Z,36.82
2022-08-21T14:01:50.087Z,36.70
2022-08-21T14:04:27.887Z,38.60
2022-08-21T14:06:55.269Z,37.08
2022-08-21T14:09:32.302Z,37.34
2022-08-21T14:12:05.834Z,37.53
2022-08-21T14:14:36.250Z,34.74
2022-08-21T14:17:25.188Z,33.42
2022-08-21T14:19:53.558Z,34.40
2022-08-21T14:22:40.336Z,34.75
2022-08-21T14:25:13.863Z,33.49
2022-08-21T14:27:50.037Z,35.19
2022-08-21T14:30:36.262Z,34.30
2022-08-21T14:33:05.716Z,36.37
2022-08-21T14:35:32.553Z,33.23
2022-08-21T14:37:59.407Z,32.93
2022-08-21T14:40:27.513Z,32.83
2022-08-21T14:42:55.887Z,34.19
2022-08-21T14:45:31.748Z,34.05
2022-08-21T14:48:00.071Z,34.84
2022-08-21T14:50:28.319Z,33.38
2022-08-21T14:52:56.238Z,32.01
2022-08-21T14:55:23.154Z,34.69
2022-08-21T14:57:52.809Z,35.82
2022-08-21T15:00:35.502Z,35.65
2022-08-21T15:03:03.678Z,36.13
2022-08-21T15:05:33.690Z,36.95
2022-08-21T15:08:01.411Z,37.07
2022-08-21T15:10:29.040Z,37.97
2022-08-21T15:12:56.437Z,37.59
2022-08-21T15:15:23.426Z,37.78
2022-08-21T15:17:50.246Z,37.82
2022-08-21T15:20:17.155Z,37.12
2022-08-21T15:22:47.560Z,36.58
2022-08-21T15:25:14.865Z,36.72
2022-08-21T15:27:41.882Z,35.38
2022-08-21T15:30:09.609Z,36.77
2022-08-21T15:32:36.421Z,37.92
2022-08-21T15:35:07.140Z,36.11
2022-08-21T15:37:34.172Z,35.29
2022-08-21T15:40:01.088Z,35.64
2022-08-21T15:42:28.687Z,35.66
2022-08-21T15:44:57.377Z,35.68
2022-08-21T15:47:30.082Z,36.46
2022-08-21T15:49:57.050Z,35.21
2022-08-21T15:52:24.346Z,36.77
2022-08-21T15:54:51.962Z,36.66
2022-08-21T15:57:23.471Z,36.39
2022-08-21T16:00:10.094Z,37.63
2022-08-21T16:02:37.479Z,37.59
2022-08-21T16:05:05.125Z,38.38
2022-08-21T16:07:32.043Z,37.94
2022-08-21T16:09:58.893Z,38.36
2022-08-21T16:12:34.325Z,38.17
2022-08-21T16:15:05.132Z,39.03
2022-08-21T16:17:35.693Z,35.88
2022-08-21T16:20:09.699Z,37.36
2022-08-21T16:22:44.405Z,38.21
2022-08-21T16:25:13.426Z,39.08
2022-08-21T16:27:42.790Z,37.96
2022-08-21T16:30:12.699Z,37.13
2022-08-21T16:32:39.543Z,37.61
2022-08-21T16:35:06.501Z,37.46
2022-08-21T16:37:33.478Z,37.42
2022-08-21T16:40:00.466Z,37.84
2022-08-21T16:42:27.500Z,38.25
2022-08-21T16:44:55.445Z,38.48
2022-08-21T16:47:26.861Z,39.21
2022-08-21T16:49:54.366Z,38.74
2022-08-21T16:52:21.261Z,37.38
2022-08-21T16:54:48.125Z,38.54
2022-08-21T16:57:15.025Z,38.47
2022-08-21T16:59:42.251Z,39.45
2022-08-21T17:02:30.436Z,39.25
2022-08-21T17:04:57.549Z,38.89
2022-08-21T17:07:24.869Z,39.68
2022-08-21T17:09:51.809Z,39.96
2022-08-21T17:12:19.279Z,38.47
2022-08-21T17:14:47.379Z,38.71
2022-08-21T17:17:14.935Z,38.52
2022-08-21T17:19:42.402Z,39.30
2022-08-21T17:22:09.998Z,39.40
2022-08-21T17:24:37.733Z,40.08
2022-08-21T17:27:05.589Z,40.85
2022-08-21T17:29:37.779Z,40.16
2022-08-21T17:32:09.866Z,40.70
2022-08-21T17:34:38.015Z,40.57
2022-08-21T17:37:06.885Z,40.36
2022-08-21T17:39:33.840Z,40.64
2022-08-21T17:42:07.081Z,40.37
2022-08-21T17:44:37.750Z,40.68
2022-08-21T17:47:05.340Z,44.06
2022-08-21T17:49:32.286Z,48.80
2022-08-21T17:52:00.163Z,49.70
2022-08-21T17:54:28.160Z,52.93
2022-08-21T17:56:56.207Z,53.24
2022-08-21T17:59:24.533Z,55.34
2022-08-21T18:01:51.458Z,55.24
2022-08-21T18:04:18.332Z,56.03
2022-08-21T18:06:45.882Z,55.58
2022-08-21T18:09:13.214Z,55.66
2022-08-21T18:11:42.179Z,55.04
2022-08-21T18:14:16.989Z,56.30
2022-08-21T18:16:45.428Z,57.03
2022-08-21T18:19:15.886Z,56.64
2022-08-21T18:21:43.113Z,58.12
2022-08-21T18:24:09.925Z,58.43
2022-08-21T18:26:39.992Z,57.54
2022-08-21T18:29:11.513Z,56.58
2022-08-21T18:31:40.438Z,58.53
2022-08-21T18:34:24.677Z,60.48
2022-08-21T18:36:52.989Z,60.72
2022-08-21T18:39:37.794Z,60.93
2022-08-21T18:42:11.405Z,61.65
2022-08-21T18:44:40.830Z,62.02
2022-08-21T18:47:14.491Z,63.61
2022-08-21T18:55:17.736Z,66.58
2022-08-21T18:57:46.549Z,67.26
2022-08-21T19:00:23.367Z,67.82
2022-08-21T19:02:51.590Z,67.99
2022-08-21T19:05:20.626Z,68.99
2022-08-21T19:07:51.413Z,69.51
2022-08-21T19:10:24.374Z,69.90
2022-08-21T19:12:51.936Z,70.69
2022-08-21T19:15:23.209Z,72.20
2022-08-21T19:17:51.457Z,72.86
2022-08-21T19:20:34.436Z,74.30
2022-08-21T19:23:04.432Z,74.01
2022-08-21T19:25:34.365Z,74.89
2022-08-21T19:28:10.764Z,75.69
2022-08-21T19:30:42.078Z,77.16
2022-08-21T19:33:23.729Z,77.98
2022-08-21T19:38:38.991Z,78.61
2022-08-21T19:41:10.436Z,79.93
2022-08-21T19:43:50.296Z,80.39
2022-08-21T19:46:25.824Z,81.27
2022-08-21T19:48:55.104Z,80.62
2022-08-21T19:51:23.245Z,80.41
2022-08-21T19:53:56.944Z,81.38
2022-08-21T19:56:27.667Z,82.52
2022-08-21T19:58:55.659Z,82.76
2022-08-21T20:01:25.902Z,84.29
2022-08-21T20:03:54.784Z,84.91
2022-08-21T20:06:25.853Z,84.99
2022-08-21T20:08:55.137Z,85.58
2022-08-21T20:11:31.528Z,86.44
2022-08-21T20:14:23.835Z,87.26
2022-08-21T20:16:52.715Z,88.54
2022-08-21T20:19:21.776Z,89.63
2022-08-21T20:21:49.083Z,89.84
2022-08-21T20:24:16.454Z,91.54
2022-08-21T20:26:49.224Z,92.66
2022-08-21T20:32:07.786Z,94.24
2022-08-21T20:34:34.871Z,94.54
2022-08-21T20:37:02.055Z,94.50
2022-08-21T20:39:32.267Z,94.54
2022-08-21T20:41:59.190Z,94.95
2022-08-21T20:44:32.601Z,95.06
2022-08-21T20:47:01.416Z,95.69
2022-08-21T20:49:43.204Z,96.50
2022-08-21T20:52:10.873Z,96.18
2022-08-21T20:55:06.763Z,97.02
2022-08-21T20:58:01.320Z,99.30
2022-08-21T21:00:34.564Z,98.95
2022-08-21T21:03:31.538Z,99.46
2022-08-21T21:06:05.056Z,100.00
2022-08-21T21:08:39.303Z,100.00
2022-08-21T21:11:26.874Z,100.00
2022-08-21T21:14:05.865Z,100.00
2022-08-21T21:16:50.755Z,100.00
2022-08-21T21:19:36.946Z,100.00
2022-08-21T21:22:42.185Z,100.00
2022-08-21T21:25:19.398Z,100.00
2022-08-21T21:27:57.272Z,100.00
2022-08-21T21:30:32.621Z,100.00
2022-08-21T21:32:59.664Z,100.00
2022-08-21T21:35:36.511Z,100.00
2022-08-21T21:38:36.199Z,100.00
2022-08-21T21:41:31.459Z,100.00
2022-08-21T21:44:26.681Z,100.00
2022-08-21T21:47:56.326Z,100.00
2022-08-21T21:50:29.109Z,100.00
2022-08-21T21:53:39.709Z,100.00
2022-08-21T21:56:36.504Z,100.00
2022-08-21T21:59:23.135Z,100.00
2022-08-21T22:02:18.498Z,100.00
2022-08-21T22:05:13.863Z,100.00
2022-08-21T22:07:49.235Z,100.00
2022-08-21T22:10:43.281Z,100.00
2022-08-21T22:16:20.901Z,100.00
2022-08-21T22:18:57.498Z,100.00
2022-08-21T22:21:40.501Z,100.00
2022-08-21T22:24:24.258Z,100.00
2022-08-21T22:26:58.242Z,100.00
2022-08-21T22:30:02.422Z,100.00
2022-08-21T22:32:37.360Z,100.00
2022-08-21T22:35:19.095Z,100.00
2022-08-21T22:37:51.677Z,100.00
2022-08-21T22:40:32.095Z,100.00
2022-08-21T22:43:09.798Z,100.00
2022-08-21T22:46:06.836Z,100.00
2022-08-21T22:48:40.216Z,100.00
2022-08-21T22:51:44.535Z,100.00
2022-08-21T22:54:22.850Z,100.00
2022-08-21T22:57:02.412Z,100.00
2022-08-21T23:00:11.822Z,100.00
2022-08-21T23:05:39.106Z,100.00
2022-08-21T23:08:25.426Z,100.00
2022-08-21T23:11:06.412Z,100.00
2022-08-21T23:13:46.651Z,100.00
2022-08-21T23:16:38.958Z,100.00
2022-08-21T23:19:55.454Z,100.00
2022-08-21T23:23:04.204Z,100.00
2022-08-21T23:25:38.290Z,100.00
2022-08-21T23:28:27.001Z,100.00
2022-08-21T23:31:36.646Z,100.00
2022-08-21T23:34:57.429Z,100.00
2022-08-21T23:37:51.757Z,100.00
2022-08-21T23:40:51.609Z,100.00
2022-08-21T23:43:52.011Z,100.00
2022-08-21T23:46:52.774Z,100.00
2022-08-21T23:49:53.976Z,100.00
2022-08-21T23:52:38.995Z,100.00
2022-08-21T23:55:37.587Z,100.00
2022-08-21T23:58:51.175Z,100.00
